createdAt,value
2019-02-12T00:02:01.819Z,2.37
2019-02-12T00:04:29.889Z,2.37
2019-02-12T00:06:57.976Z,2.03
2019-02-12T00:09:26.046Z,2.20
2019-02-12T00:11:54.175Z,2.03
2019-02-12T00:14:22.304Z,2.67
2019-02-12T00:16:50.417Z,2.13
2019-02-12T00:19:18.523Z,2.73
2019-02-12T00:21:46.626Z,2.33
2019-02-12T00:24:14.759Z,3.40
2019-02-12T00:26:42.817Z,2.43
2019-02-12T00:29:10.897Z,2.70
2019-02-12T00:31:39.170Z,3.00
2019-02-12T00:34:07.271Z,2.67
2019-02-12T00:36:35.366Z,2.80
2019-02-12T00:39:04.679Z,2.70
2019-02-12T00:41:32.753Z,2.53
2019-02-12T00:44:00.846Z,2.50
2019-02-12T00:46:28.930Z,2.33
2019-02-12T00:48:56.993Z,2.50
2019-02-12T00:51:25.049Z,3.10
2019-02-12T00:53:53.129Z,2.30
2019-02-12T00:56:21.164Z,2.50
2019-02-12T00:58:49.206Z,2.40
2019-02-12T01:01:17.294Z,2.37
2019-02-12T01:03:45.830Z,2.27
2019-02-12T01:06:13.894Z,2.70
2019-02-12T01:08:42.130Z,3.00
2019-02-12T01:11:10.201Z,2.60
2019-02-12T01:13:38.314Z,2.80
2019-02-12T01:16:06.384Z,2.80
2019-02-12T01:18:34.443Z,2.67
2019-02-12T01:21:02.549Z,2.60
2019-02-12T01:23:30.641Z,3.13
2019-02-12T01:25:58.727Z,2.97
2019-02-12T01:28:26.814Z,3.33
2019-02-12T01:30:54.895Z,2.83
2019-02-12T01:33:22.966Z,2.63
2019-02-12T01:35:51.405Z,2.60
2019-02-12T01:38:19.483Z,3.00
2019-02-12T01:40:47.582Z,2.67
2019-02-12T01:43:15.605Z,2.93
2019-02-12T01:45:43.687Z,2.77
2019-02-12T01:48:11.814Z,3.00
2019-02-12T01:50:42.082Z,2.97
2019-02-12T01:53:10.252Z,3.20
2019-02-12T01:55:39.320Z,3.47
2019-02-12T01:58:07.381Z,3.80
2019-02-12T02:00:35.451Z,3.30
2019-02-12T02:03:03.567Z,3.80
2019-02-12T02:05:31.664Z,3.20
2019-02-12T02:07:59.800Z,3.63
2019-02-12T02:10:27.842Z,3.17
2019-02-12T02:12:55.906Z,3.90
2019-02-12T02:15:24.030Z,3.37
2019-02-12T02:17:52.113Z,3.50
2019-02-12T02:20:20.202Z,3.70
2019-02-12T02:22:48.320Z,3.47
2019-02-12T02:25:17.824Z,3.63
2019-02-12T02:27:45.891Z,3.40
2019-02-12T02:30:15.003Z,3.27
2019-02-12T02:32:43.179Z,2.87
2019-02-12T02:35:11.268Z,4.00
2019-02-12T02:37:39.477Z,3.87
2019-02-12T02:40:08.032Z,3.37
2019-02-12T02:42:36.185Z,3.27
2019-02-12T02:45:04.690Z,3.67
2019-02-12T02:47:32.806Z,3.60
2019-02-12T02:50:03.281Z,4.23
2019-02-12T02:52:30.633Z,3.47
2019-02-12T02:54:58.709Z,3.30
2019-02-12T02:57:26.790Z,3.43
2019-02-12T02:59:54.866Z,3.70
2019-02-12T03:02:22.951Z,2.87
2019-02-12T03:04:51.040Z,3.73
2019-02-12T03:07:19.093Z,3.57
2019-02-12T03:09:47.231Z,3.47
2019-02-12T03:12:15.305Z,3.50
2019-02-12T03:14:43.392Z,4.10
2019-02-12T03:17:11.486Z,3.23
2019-02-12T03:19:39.612Z,3.37
2019-02-12T03:22:07.811Z,3.63
2019-02-12T03:24:35.874Z,3.33
2019-02-12T03:27:03.953Z,3.70
2019-02-12T03:29:32.013Z,2.90
2019-02-12T03:32:00.078Z,4.03
2019-02-12T03:34:28.184Z,3.77
2019-02-12T03:36:56.257Z,3.13
2019-02-12T03:39:24.367Z,3.20
2019-02-12T03:41:52.447Z,3.33
2019-02-12T03:44:20.563Z,3.37
2019-02-12T03:46:48.650Z,2.93
2019-02-12T03:49:16.722Z,3.80
2019-02-12T03:51:44.793Z,3.23
2019-02-12T03:54:13.134Z,3.77
2019-02-12T03:56:41.210Z,3.30
2019-02-12T03:59:09.306Z,3.60
2019-02-12T04:01:37.438Z,3.40
2019-02-12T04:04:05.573Z,3.33
2019-02-12T04:06:33.637Z,4.27
2019-02-12T04:09:01.721Z,3.27
2019-02-12T04:11:29.810Z,3.37
2019-02-12T04:13:57.882Z,3.70
2019-02-12T04:16:25.982Z,3.73
2019-02-12T04:18:54.086Z,3.73
2019-02-12T04:21:22.174Z,4.17
2019-02-12T04:23:50.306Z,5.10
2019-02-12T04:26:18.407Z,3.40
2019-02-12T04:28:46.541Z,3.57
2019-02-12T04:31:14.691Z,4.20
2019-02-12T04:33:42.709Z,3.83
2019-02-12T04:36:10.781Z,3.87
2019-02-12T04:38:38.952Z,3.57
2019-02-12T04:41:07.017Z,4.20
2019-02-12T04:43:35.111Z,3.73
2019-02-12T04:46:03.202Z,3.77
2019-02-12T04:48:31.274Z,3.57
2019-02-12T04:50:59.326Z,3.40
2019-02-12T04:53:27.401Z,3.80
2019-02-12T04:55:55.511Z,3.50
2019-02-12T04:58:23.605Z,3.97
2019-02-12T05:00:51.678Z,4.13
2019-02-12T05:03:19.706Z,4.03
2019-02-12T05:05:47.789Z,3.90
2019-02-12T05:08:15.885Z,3.87
2019-02-12T05:10:46.762Z,3.97
2019-02-12T05:13:14.958Z,4.10
2019-02-12T05:15:43.086Z,3.70
2019-02-12T05:18:11.154Z,3.93
2019-02-12T05:20:39.303Z,3.37
2019-02-12T05:23:08.757Z,3.83
2019-02-12T05:25:36.773Z,3.90
2019-02-12T05:28:04.856Z,3.73
2019-02-12T05:30:32.935Z,4.07
2019-02-12T05:33:01.015Z,4.03
2019-02-12T05:35:29.077Z,4.03
2019-02-12T05:37:57.133Z,4.20
2019-02-12T05:40:25.319Z,3.27
2019-02-12T05:42:53.485Z,3.70
2019-02-12T05:45:21.636Z,3.30
2019-02-12T05:47:49.761Z,4.03
2019-02-12T05:50:17.849Z,4.10
2019-02-12T05:52:53.598Z,4.40
2019-02-12T05:55:15.602Z,3.97
2019-02-12T05:57:43.641Z,3.53
2019-02-12T06:00:12.659Z,3.27
2019-02-12T06:02:40.696Z,3.57
2019-02-12T06:05:08.726Z,3.40
2019-02-12T06:07:36.826Z,3.60
2019-02-12T06:10:05.231Z,2.97
2019-02-12T06:12:33.293Z,2.97
2019-02-12T06:15:01.375Z,3.50
2019-02-12T06:17:29.535Z,2.87
2019-02-12T06:19:57.735Z,3.57
2019-02-12T06:22:25.924Z,3.27
2019-02-12T06:24:54.050Z,3.40
2019-02-12T06:27:22.198Z,3.13
2019-02-12T06:29:50.342Z,2.90
2019-02-12T06:32:18.572Z,3.50
2019-02-12T06:34:46.724Z,2.83
2019-02-12T06:37:15.103Z,3.53
2019-02-12T06:39:43.342Z,3.70
2019-02-12T06:42:11.531Z,3.53
2019-02-12T06:44:40.216Z,3.00
2019-02-12T06:47:08.292Z,3.10
2019-02-12T06:49:36.392Z,3.43
2019-02-12T06:52:04.605Z,3.03
2019-02-12T06:54:32.711Z,2.93
2019-02-12T06:57:00.849Z,2.97
2019-02-12T06:59:28.983Z,3.23
2019-02-12T07:02:19.198Z,3.33
2019-02-12T07:04:47.362Z,3.77
2019-02-12T07:07:33.060Z,3.37
2019-02-12T07:10:03.525Z,3.97
2019-02-12T07:13:06.029Z,4.53
2019-02-12T07:15:36.056Z,3.50
2019-02-12T07:18:21.843Z,4.00
2019-02-12T07:21:08.046Z,4.37
2019-02-12T07:23:54.287Z,4.03
2019-02-12T07:26:44.209Z,3.63
2019-02-12T07:29:46.634Z,5.33
2019-02-12T07:32:30.270Z,4.53
2019-02-12T07:35:23.238Z,4.30
2019-02-12T07:38:16.582Z,4.00
2019-02-12T07:41:19.863Z,4.07
2019-02-12T07:44:11.034Z,4.23
2019-02-12T07:47:10.154Z,4.30
2019-02-12T07:50:00.304Z,3.23
2019-02-12T07:52:47.596Z,4.20
2019-02-12T07:55:47.030Z,4.00
2019-02-12T07:58:37.498Z,3.73
2019-02-12T08:01:24.965Z,4.57
2019-02-12T08:04:30.266Z,3.77
2019-02-12T08:07:29.742Z,4.57
2019-02-12T08:10:09.414Z,3.57
2019-02-12T08:12:55.134Z,3.97
2019-02-12T08:15:45.011Z,3.80
2019-02-12T08:18:28.623Z,3.60
2019-02-12T08:21:15.801Z,3.50
2019-02-12T08:24:05.907Z,4.03
2019-02-12T08:26:45.629Z,4.33
2019-02-12T08:29:45.170Z,3.00
2019-02-12T08:32:33.406Z,3.63
2019-02-12T08:35:11.129Z,4.10
2019-02-12T08:38:04.323Z,3.87
2019-02-12T08:40:41.624Z,3.67
2019-02-12T08:43:28.793Z,3.67
2019-02-12T08:46:14.796Z,4.50
2019-02-12T08:49:02.020Z,3.90
2019-02-12T08:51:49.170Z,3.80
2019-02-12T08:54:34.921Z,4.33
2019-02-12T08:57:20.693Z,4.53
2019-02-12T08:59:58.593Z,3.90
2019-02-12T09:02:55.033Z,4.33
2019-02-12T09:05:48.222Z,4.00
2019-02-12T09:08:26.395Z,3.43
2019-02-12T09:11:12.204Z,3.43
2019-02-12T09:13:45.815Z,3.30
2019-02-12T09:16:45.310Z,3.43
2019-02-12T09:19:18.645Z,3.10
2019-02-12T09:22:03.132Z,4.10
2019-02-12T09:24:53.050Z,4.17
2019-02-12T09:27:40.210Z,3.40
2019-02-12T09:30:26.050Z,3.60
2019-02-12T09:33:09.864Z,2.90
2019-02-12T09:36:03.200Z,3.00
2019-02-12T09:38:50.369Z,2.73
2019-02-12T09:41:29.742Z,3.23
2019-02-12T09:44:22.892Z,3.30
2019-02-12T09:47:08.649Z,2.80
2019-02-12T09:49:54.326Z,3.23
2019-02-12T09:52:41.610Z,3.17
2019-02-12T09:55:23.817Z,3.50
2019-02-12T09:57:58.886Z,3.17
2019-02-12T10:00:30.040Z,3.10
2019-02-12T10:03:16.350Z,3.10
2019-02-12T10:06:09.627Z,2.93
2019-02-12T10:08:59.793Z,3.10
2019-02-12T10:11:49.723Z,3.73
2019-02-12T10:14:46.154Z,3.17
2019-02-12T10:17:48.460Z,3.80
2019-02-12T10:20:24.012Z,3.10
2019-02-12T10:23:20.197Z,3.20
2019-02-12T10:25:51.286Z,3.03
2019-02-12T10:28:37.056Z,2.70
2019-02-12T10:31:15.751Z,3.20
2019-02-12T10:33:43.930Z,3.30
2019-02-12T10:36:12.057Z,3.27
2019-02-12T10:38:40.230Z,3.97
2019-02-12T10:41:08.365Z,3.83
2019-02-12T10:43:36.644Z,3.77
2019-02-12T10:46:04.847Z,3.27
2019-02-12T10:48:32.949Z,2.80
2019-02-12T10:51:01.040Z,3.43
2019-02-12T10:53:29.651Z,3.37
2019-02-12T10:55:57.998Z,2.87
2019-02-12T10:58:26.083Z,3.23
2019-02-12T11:00:54.225Z,3.63
2019-02-12T11:03:22.453Z,2.73
2019-02-12T11:05:50.528Z,2.93
2019-02-12T11:08:18.613Z,3.47
2019-02-12T11:10:46.736Z,3.53
2019-02-12T11:13:14.889Z,4.00
2019-02-12T11:15:42.965Z,4.10
2019-02-12T11:18:11.122Z,3.60
2019-02-12T11:20:39.381Z,3.27
2019-02-12T11:23:07.580Z,3.40
2019-02-12T11:25:35.683Z,3.40
2019-02-12T11:28:03.817Z,3.60
2019-02-12T11:30:31.979Z,3.13
2019-02-12T11:33:00.083Z,3.30
2019-02-12T11:35:28.161Z,3.03
2019-02-12T11:37:56.257Z,2.83
2019-02-12T11:40:24.373Z,3.47
2019-02-12T11:42:52.494Z,4.43
2019-02-12T11:45:20.638Z,5.83
2019-02-12T11:47:48.738Z,4.73
2019-02-12T11:50:16.853Z,4.93
2019-02-12T11:52:44.959Z,7.20
2019-02-12T11:55:13.088Z,5.17
2019-02-12T11:57:41.232Z,4.27
2019-02-12T12:00:10.689Z,4.50
2019-02-12T12:02:42.110Z,4.70
2019-02-12T12:05:09.150Z,5.30
2019-02-12T12:07:37.432Z,4.97
2019-02-12T12:10:05.637Z,4.97
2019-02-12T12:12:33.814Z,4.70
2019-02-12T12:15:01.952Z,4.73
2019-02-12T12:17:30.066Z,4.70
2019-02-12T12:19:58.182Z,3.37
2019-02-12T12:22:26.356Z,3.53
2019-02-12T12:24:54.485Z,4.20
2019-02-12T12:27:22.571Z,4.33
2019-02-12T12:29:50.670Z,4.00
2019-02-12T12:32:18.784Z,3.67
2019-02-12T12:34:46.885Z,3.47
2019-02-12T12:37:15.259Z,3.50
2019-02-12T12:39:43.393Z,4.03
2019-02-12T12:42:11.454Z,3.63
2019-02-12T12:44:39.611Z,4.23
2019-02-12T12:47:07.854Z,3.97
2019-02-12T12:49:36.024Z,3.93
2019-02-12T12:52:06.149Z,4.10
2019-02-12T12:54:34.270Z,4.30
2019-02-12T12:57:02.415Z,3.70
2019-02-12T12:59:30.527Z,3.60
2019-02-12T13:01:58.664Z,4.17
2019-02-12T13:04:26.757Z,4.13
2019-02-12T13:06:54.938Z,4.60
2019-02-12T13:09:23.069Z,4.40
2019-02-12T13:11:51.301Z,4.80
2019-02-12T13:14:19.483Z,4.73
2019-02-12T13:16:47.690Z,4.70
2019-02-12T13:19:15.950Z,4.50
2019-02-12T13:21:44.080Z,4.60
2019-02-12T13:24:12.149Z,4.77
2019-02-12T13:26:40.257Z,4.73
2019-02-12T13:29:08.373Z,4.43
2019-02-12T13:31:36.594Z,4.63
2019-02-12T13:34:04.870Z,4.83
2019-02-12T13:36:33.078Z,4.40
2019-02-12T13:39:01.212Z,4.93
2019-02-12T13:41:29.350Z,4.57
2019-02-12T13:43:57.519Z,4.97
2019-02-12T13:46:25.622Z,5.00
2019-02-12T13:48:53.714Z,4.63
2019-02-12T13:51:21.874Z,4.40
2019-02-12T13:53:49.965Z,5.17
2019-02-12T13:56:18.076Z,4.57
2019-02-12T13:58:46.177Z,4.53
2019-02-12T14:01:14.288Z,5.30
2019-02-12T14:03:42.406Z,4.27
2019-02-12T14:06:10.535Z,4.00
2019-02-12T14:08:38.787Z,4.37
2019-02-12T14:11:06.870Z,4.70
2019-02-12T14:13:35.006Z,4.10
2019-02-12T14:16:03.040Z,4.53
2019-02-12T14:18:31.138Z,4.17
2019-02-12T14:20:59.205Z,4.13
2019-02-12T14:23:27.526Z,7.17
2019-02-12T14:25:55.827Z,4.57
2019-02-12T14:28:23.908Z,3.90
2019-02-12T14:30:51.994Z,3.90
2019-02-12T14:33:20.070Z,3.63
2019-02-12T14:35:48.150Z,3.57
2019-02-12T14:38:16.273Z,3.53
2019-02-12T14:40:44.372Z,3.83
2019-02-12T14:43:14.189Z,4.00
2019-02-12T14:45:42.154Z,4.60
2019-02-12T14:48:10.263Z,4.47
2019-02-12T14:50:38.329Z,4.87
2019-02-12T14:53:06.424Z,3.70
2019-02-12T14:55:34.490Z,3.87
2019-02-12T14:58:02.568Z,3.67
2019-02-12T15:00:30.630Z,3.07
2019-02-12T15:02:58.700Z,3.30
2019-02-12T15:05:26.787Z,3.73
2019-02-12T15:07:54.860Z,3.87
2019-02-12T15:10:22.929Z,4.07
2019-02-12T15:12:50.993Z,4.13
2019-02-12T15:15:19.107Z,4.27
2019-02-12T15:17:47.190Z,4.63
2019-02-12T15:20:15.327Z,4.00
2019-02-12T15:22:43.424Z,3.20
2019-02-12T15:25:12.138Z,3.30
2019-02-12T15:27:42.814Z,3.93
2019-02-12T15:30:11.919Z,3.47
2019-02-12T15:32:40.037Z,3.23
2019-02-12T15:35:08.845Z,3.30
2019-02-12T15:37:36.944Z,3.13
2019-02-12T15:40:05.602Z,3.53
2019-02-12T15:42:33.667Z,3.33
2019-02-12T15:45:01.760Z,3.07
2019-02-12T15:47:29.838Z,3.07
2019-02-12T15:49:57.908Z,3.77
2019-02-12T15:52:26.014Z,3.67
2019-02-12T15:54:54.086Z,3.43
2019-02-12T15:57:24.519Z,2.93
2019-02-12T15:59:54.046Z,3.00
2019-02-12T16:02:21.998Z,3.50
2019-02-12T16:04:53.679Z,3.67
2019-02-12T16:07:24.333Z,3.33
2019-02-12T16:09:53.000Z,3.50
2019-02-12T16:12:22.320Z,3.70
2019-02-12T16:14:50.390Z,3.63
2019-02-12T16:17:18.567Z,4.40
2019-02-12T16:19:47.100Z,3.83
2019-02-12T16:22:16.435Z,4.17
2019-02-12T16:24:44.661Z,4.60
2019-02-12T16:27:12.729Z,4.50
2019-02-12T16:29:40.805Z,5.13
2019-02-12T16:32:08.893Z,4.23
2019-02-12T16:34:36.989Z,4.77
2019-02-12T16:37:05.044Z,4.73
2019-02-12T16:39:33.136Z,4.20
2019-02-12T16:42:01.254Z,4.27
2019-02-12T16:44:29.375Z,6.37
2019-02-12T16:46:57.469Z,4.17
2019-02-12T16:49:25.542Z,4.20
2019-02-12T16:51:53.652Z,4.50
2019-02-12T16:54:21.702Z,4.80
2019-02-12T16:56:49.823Z,4.90
2019-02-12T16:59:17.890Z,4.40
2019-02-12T17:01:46.031Z,5.67
2019-02-12T17:04:15.070Z,4.40
2019-02-12T17:06:43.150Z,4.57
2019-02-12T17:09:11.339Z,4.70
2019-02-12T17:11:39.677Z,4.50
2019-02-12T17:14:07.789Z,5.10
2019-02-12T17:16:35.890Z,4.47
2019-02-12T17:19:04.052Z,5.30
2019-02-12T17:21:32.111Z,4.87
2019-02-12T17:24:00.206Z,4.87
2019-02-12T17:26:28.326Z,5.10
2019-02-12T17:28:56.422Z,5.13
2019-02-12T17:31:24.437Z,5.07
2019-02-12T17:33:52.753Z,4.43
2019-02-12T17:36:20.833Z,4.53
2019-02-12T17:38:49.058Z,4.40
2019-02-12T17:41:20.294Z,4.40
2019-02-12T17:43:48.373Z,4.63
2019-02-12T17:46:16.483Z,4.77
2019-02-12T17:48:44.571Z,4.70
2019-02-12T17:51:13.182Z,4.30
2019-02-12T17:53:41.290Z,4.93
2019-02-12T17:56:09.386Z,4.33
2019-02-12T17:58:37.465Z,3.90
2019-02-12T18:01:06.086Z,4.90
2019-02-12T18:03:34.186Z,4.97
2019-02-12T18:06:02.293Z,4.30
2019-02-12T18:08:30.452Z,4.77
2019-02-12T18:10:58.553Z,4.17
2019-02-12T18:13:26.958Z,4.50
2019-02-12T18:15:55.197Z,4.37
2019-02-12T18:18:23.284Z,5.00
2019-02-12T18:20:51.387Z,4.53
2019-02-12T18:23:19.554Z,5.27
2019-02-12T18:25:47.749Z,4.80
2019-02-12T18:28:15.991Z,5.07
2019-02-12T18:30:44.128Z,4.97
2019-02-12T18:33:12.169Z,4.60
2019-02-12T18:35:40.275Z,4.87
2019-02-12T18:38:08.444Z,4.70
2019-02-12T18:40:36.615Z,5.27
2019-02-12T18:43:05.070Z,5.07
2019-02-12T18:45:33.172Z,5.00
2019-02-12T18:48:01.229Z,4.70
2019-02-12T18:50:29.757Z,4.53
2019-02-12T18:52:57.866Z,4.50
2019-02-12T18:55:25.981Z,4.50
2019-02-12T18:57:54.050Z,5.03
2019-02-12T19:00:22.131Z,5.30
2019-02-12T19:02:50.201Z,5.67
2019-02-12T19:05:18.393Z,4.80
2019-02-12T19:07:48.015Z,4.47
2019-02-12T19:10:16.919Z,4.40
2019-02-12T19:12:45.038Z,4.47
2019-02-12T19:15:13.847Z,4.40
2019-02-12T19:17:42.511Z,4.90
2019-02-12T19:20:11.586Z,4.63
2019-02-12T19:22:39.709Z,4.93
2019-02-12T19:25:08.916Z,5.43
2019-02-12T19:27:37.447Z,4.40
2019-02-12T19:30:08.178Z,5.07
2019-02-12T19:32:36.412Z,5.10
2019-02-12T19:35:05.454Z,4.27
2019-02-12T19:37:33.781Z,5.20
2019-02-12T19:40:02.038Z,4.87
2019-02-12T19:42:30.737Z,5.20
2019-02-12T19:44:59.088Z,5.33
2019-02-12T19:47:27.308Z,5.40
2019-02-12T19:49:55.835Z,5.40
2019-02-12T19:52:24.291Z,5.13
2019-02-12T19:54:52.671Z,5.97
2019-02-12T19:57:21.223Z,5.40
2019-02-12T19:59:49.661Z,5.93
2019-02-12T20:02:18.165Z,5.13
2019-02-12T20:04:46.598Z,5.40
2019-02-12T20:07:14.966Z,5.73
2019-02-12T20:09:44.127Z,5.13
2019-02-12T20:12:12.639Z,5.70
2019-02-12T20:14:41.376Z,5.97
2019-02-12T20:17:09.840Z,5.90
2019-02-12T20:19:38.171Z,5.70
2019-02-12T20:22:06.612Z,6.40
2019-02-12T20:24:35.055Z,5.33
2019-02-12T20:27:06.728Z,5.60
2019-02-12T20:29:33.461Z,5.33
2019-02-12T20:32:01.797Z,6.20
2019-02-12T20:34:30.219Z,5.80
2019-02-12T20:36:59.057Z,6.10
2019-02-12T20:39:27.538Z,6.23
2019-02-12T20:41:55.972Z,6.53
2019-02-12T20:44:24.431Z,6.50
2019-02-12T20:46:52.828Z,6.80
2019-02-12T20:49:21.251Z,6.10
2019-02-12T20:51:49.678Z,6.77
2019-02-12T20:54:18.108Z,6.63
2019-02-12T20:56:46.517Z,6.93
2019-02-12T20:59:14.973Z,6.63
2019-02-12T21:01:43.405Z,6.60
2019-02-12T21:04:11.796Z,6.47
2019-02-12T21:06:40.150Z,6.70
2019-02-12T21:09:08.722Z,7.00
2019-02-12T21:11:37.079Z,6.70
2019-02-12T21:14:05.516Z,6.70
2019-02-12T21:16:34.019Z,5.93
2019-02-12T21:19:02.266Z,7.07
2019-02-12T21:21:30.481Z,6.87
2019-02-12T21:23:58.828Z,6.60
2019-02-12T21:26:27.052Z,6.63
2019-02-12T21:28:55.246Z,6.90
2019-02-12T21:31:23.500Z,6.97
2019-02-12T21:33:51.739Z,6.77
2019-02-12T21:36:19.890Z,7.13
2019-02-12T21:38:47.953Z,6.83
2019-02-12T21:41:16.127Z,7.17
2019-02-12T21:43:44.188Z,6.97
2019-02-12T21:46:12.428Z,7.17
2019-02-12T21:48:40.717Z,7.57
2019-02-12T21:51:08.804Z,7.03
2019-02-12T21:53:36.866Z,7.30
2019-02-12T21:56:04.967Z,7.30
2019-02-12T21:58:33.065Z,7.60
2019-02-12T22:01:01.218Z,7.13
2019-02-12T22:03:29.341Z,8.10
2019-02-12T22:05:57.404Z,7.87
2019-02-12T22:08:25.507Z,7.67
2019-02-12T22:10:53.579Z,7.27
2019-02-12T22:13:21.687Z,7.93
2019-02-12T22:15:49.777Z,8.03
2019-02-12T22:18:17.779Z,8.27
2019-02-12T22:20:45.942Z,8.10
2019-02-12T22:23:14.017Z,8.70
2019-02-12T22:25:42.148Z,7.50
2019-02-12T22:28:10.259Z,8.40
2019-02-12T22:30:38.356Z,8.10
2019-02-12T22:33:06.453Z,8.80
2019-02-12T22:35:34.585Z,8.13
2019-02-12T22:38:02.680Z,8.20
2019-02-12T22:40:30.770Z,8.27
2019-02-12T22:42:58.867Z,7.70
2019-02-12T22:45:26.927Z,8.20
2019-02-12T22:47:55.031Z,8.13
2019-02-12T22:50:23.096Z,8.20
2019-02-12T22:52:51.241Z,7.60
2019-02-12T22:55:19.325Z,8.47
2019-02-12T22:57:49.538Z,7.57
2019-02-12T23:00:20.112Z,7.90
2019-02-12T23:02:48.210Z,7.80
2019-02-12T23:05:16.307Z,8.03
2019-02-12T23:07:44.388Z,7.27
2019-02-12T23:10:12.467Z,7.60
2019-02-12T23:12:40.565Z,7.67
2019-02-12T23:15:08.667Z,7.73
2019-02-12T23:17:36.779Z,8.03
2019-02-12T23:20:04.953Z,8.07
2019-02-12T23:22:33.103Z,7.83
2019-02-12T23:25:01.234Z,7.50
2019-02-12T23:27:29.321Z,7.23
2019-02-12T23:29:57.369Z,7.07
2019-02-12T23:32:25.456Z,6.47
2019-02-12T23:34:57.204Z,7.93
2019-02-12T23:37:23.343Z,7.03
2019-02-12T23:39:51.421Z,7.43
2019-02-12T23:42:19.547Z,7.17
2019-02-12T23:44:47.661Z,6.70
2019-02-12T23:47:15.719Z,7.53
2019-02-12T23:49:43.830Z,6.70
2019-02-12T23:52:11.952Z,7.27
2019-02-12T23:54:40.026Z,6.93
2019-02-12T23:57:08.142Z,6.47
2019-02-12T23:59:36.263Z,6.93
